Bookmark and Share
Track history (hours):
 

Mont Saint Michel

Last reported at 2014-Apr-17 15:33 UTC. Time now 2014-Apr-17 15:37 UTC.
Position N 49°33' W 000°21'.

Length 173 m; beam 29 m.

Type: Ship. MMSI: 227023100.

NotesDate/timePositionNaut miles runAvg speedWind from/ knotsBaromVisibWave heightAir tempDewpointWater temp
2014-Apr-17 15:33N 49°33' W 000°21'1616.2
2014-Apr-17 14:33N 49°17' W 000°15'0 0.1
2014-Apr-17 13:33N 49°17' W 000°15'2 2.5
2014-Apr-17 12:33N 49°20' W 000°14'1919.0
2014-Apr-17 11:33N 49°37' W 000°25'2121.1
2014-Apr-17 10:33N 49°57' W 000°37'2121.4
2014-Apr-17 09:34N 50°17' W 000°49'2120.9
2014-Apr-17 08:33N 50°37' W 000°59'1312.5
2014-Apr-17 07:33N 50°49' W 001°06'0 0.0
2014-Apr-17 06:33N 50°49' W 001°06'1 0.5
2014-Apr-17 05:33N 50°49' W 001°07'1312.7
2014-Apr-17 04:33N 50°37' W 000°59'1111.2
2014-Apr-17 03:33N 50°26' W 000°55'1111.2
2014-Apr-17 02:33N 50°15' W 000°49'1211.7
2014-Apr-17 01:33N 50°05' W 000°41'1211.9
2014-Apr-17 00:33N 49°54' W 000°33'1211.6
2014-Apr-16 23:33N 49°44' W 000°25'1211.5
2014-Apr-16 22:33N 49°33' W 000°19'1111.3
2014-Apr-16 21:33N 49°22' W 000°15'4 4.4
2014-Apr-16 20:33N 49°17' W 000°15'0 0.0
2014-Apr-16 19:33N 49°17' W 000°15'10 9.9
2014-Apr-16 18:34N 49°27' W 000°15'1919.5
2014-Apr-16 17:34N 49°45' W 000°26'1918.9
2014-Apr-16 16:34N 50°03' W 000°37'1818.0
2014-Apr-16 15:33N 50°19' W 000°49'2020.0
2014-Apr-16 14:34N 50°38' W 000°59'1111.4
2014-Apr-16 13:33N 50°49' W 001°06'0 0.0
2014-Apr-16 12:34N 50°49' W 001°06'3 3.5
2014-Apr-16 11:34N 50°45' W 001°05'1918.8
2014-Apr-16 10:34N 50°28' W 000°52'2019.6
2014-Apr-16 09:33N 50°10' W 000°41'2519.7
2014-Apr-16 08:18N 49°46' W 000°30'1419.5
2014-Apr-16 07:33N 49°33' W 000°22'1616.3
2014-Apr-16 06:33N 49°17' W 000°15'0 0.1
2014-Apr-16 05:33N 49°17' W 000°15'0 0.1
2014-Apr-16 04:33N 49°17' W 000°15'1414.2
2014-Apr-16 03:34N 49°31' W 000°20'1615.9
2014-Apr-16 02:32N 49°46' W 000°31'1614.2
2014-Apr-16 01:23N 50°01' W 000°40'1214.6
2014-Apr-16 00:32N 50°13' W 000°46'1515.2
2014-Apr-15 23:34N 50°27' W 000°52'1615.6
2014-Apr-15 22:33N 50°42' W 001°01'8 7.6
2014-Apr-15 21:33N 50°49' W 001°06'0 0.0
2014-Apr-15 20:33N 50°49' W 001°06'5 4.8
2014-Apr-15 19:34N 50°44' W 001°04'1918.6
2014-Apr-15 18:33N 50°28' W 000°49'4420.5
2014-Apr-15 16:25N 49°46' W 000°30'1821.4
2014-Apr-15 15:33N 49°29' W 000°20'1211.8
2014-Apr-15 14:33N 49°17' W 000°15'0 0.0
2014-Apr-15 12:33N 49°17' W 000°15'2 1.7
2014-Apr-15 11:34N 49°19' W 000°15'2019.5
2014-Apr-15 10:33N 49°38' W 000°23'4020.1
2014-Apr-15 08:33N 50°15' W 000°46'2019.9
2014-Apr-15 07:34N 50°33' W 000°58'1615.9
2014-Apr-15 06:34N 50°48' W 001°07'1 0.7
2014-Apr-15 05:34N 50°49' W 001°06'13 6.7
2014-Apr-15 03:34N 50°36' W 000°57'1211.8
2014-Apr-15 02:34N 50°25' W 000°51'1110.9
2014-Apr-15 01:33N 50°15' W 000°46'3612.1
2014-Apr-14 22:34N 49°41' W 000°26'1211.3
2014-Apr-14 21:32N 49°30' W 000°20'1010.8
2014-Apr-14 20:34N 49°20' W 000°14'3 2.7
2014-Apr-14 19:34N 49°17' W 000°15'0 0.0
2014-Apr-14 18:34N 49°17' W 000°15'1111.0
2014-Apr-14 17:34N 49°28' W 000°18'2019.8
2014-Apr-14 16:34N 49°46' W 000°30'2019.5
2014-Apr-14 15:34N 50°05' W 000°41'2120.8
2014-Apr-14 14:34N 50°24' W 000°52'2020.0
2014-Apr-14 13:34N 50°43' W 001°01'6 3.0
2014-Apr-14 11:34N 50°49' W 001°06'6 5.6
2014-Apr-14 10:34N 50°43' W 001°03'1818.1
2014-Apr-14 09:34N 50°28' W 000°49'5719.1
2014-Apr-14 06:33N 49°33' W 000°22'1616.3
2014-Apr-14 05:33N 49°17' W 000°15'9113.0
2014-Apr-13 22:34N 50°43' W 001°03'6 5.8
2014-Apr-13 21:34N 50°49' W 001°06'0 0.0
2014-Apr-13 20:34N 50°49' W 001°06'6 6.4
2014-Apr-13 19:33N 50°43' W 001°01'1716.6
2014-Apr-13 18:33N 50°28' W 000°51'1919.1
2014-Apr-13 17:33N 50°10' W 000°41'2119.1
2014-Apr-13 16:27N 49°50' W 000°30'1719.2
2014-Apr-13 15:33N 49°33' W 000°22'1716.8
2014-Apr-13 14:33N 49°17' W 000°15'0 0.1
2014-Apr-13 13:33N 49°17' W 000°15'2 1.9
2014-Apr-13 12:33N 49°19' W 000°15'1818.5
2014-Apr-13 11:33N 49°37' W 000°22'2719.1
2014-Apr-13 10:10N 50°02' W 000°34'1220.3
2014-Apr-13 09:33N 50°13' W 000°43'2020.1
2014-Apr-13 08:33N 50°32' W 000°55'1717.2
2014-Apr-13 07:33N 50°47' W 001°07'1 1.4
2014-Apr-13 06:33N 50°49' W 001°06'0 0.1
2014-Apr-13 05:33N 50°49' W 001°06'1212.2
2014-Apr-13 04:33N 50°38' W 000°58'1111.0
2014-Apr-13 03:33N 50°28' W 000°50'1110.8
2014-Apr-13 02:33N 50°17' W 000°46'2811.4
2014-Apr-13 00:05N 49°51' W 000°30'711.8
2014-Apr-12 23:28N 49°44' W 000°27'1112.1
2014-Apr-12 22:33N 49°34' W 000°21'1111.2
2014-Apr-12 21:33N 49°23' W 000°16'6 5.6
2014-Apr-12 20:33N 49°17' W 000°15'0 0.0
2014-Apr-12 19:33N 49°17' W 000°15'1212.3
2014-Apr-12 18:33N 49°29' W 000°19'1918.2
2014-Apr-12 17:32N 49°47' W 000°29'1818.3
2014-Apr-12 16:32N 50°03' W 000°41'1919.1
2014-Apr-12 15:33N 50°21' W 000°51'1919.2
2014-Apr-12 14:34N 50°39' W 000°59'1010.3
2014-Apr-12 13:34N 50°49' W 001°06'0 0.0
2014-Apr-12 12:34N 50°49' W 001°06'4 3.5
2014-Apr-12 11:34N 50°45' W 001°05'1918.5
2014-Apr-12 10:33N 50°28' W 000°54'1919.0
2014-Apr-12 09:33N 50°10' W 000°43'1919.6
2014-Apr-12 08:33N 49°52' W 000°32'2019.5
2014-Apr-12 07:33N 49°34' W 000°20'1717.3
2014-Apr-12 06:33N 49°17' W 000°15'0 0.1
2014-Apr-12 05:33N 49°17' W 000°15'0 0.1
2014-Apr-12 04:33N 49°17' W 000°15'1615.6
2014-Apr-12 03:33N 49°32' W 000°23'1716.5
2014-Apr-12 02:32N 49°48' W 000°30'1616.4
2014-Apr-12 01:33N 50°03' W 000°38'1615.9
2014-Apr-12 00:33N 50°18' W 000°47'1616.1
2014-Apr-11 23:33N 50°33' W 000°56'1515.0
2014-Apr-11 22:34N 50°47' W 001°06'2 2.0
2014-Apr-11 21:33N 50°49' W 001°06'0 0.0
2014-Apr-11 20:33N 50°49' W 001°06'8 8.0
2014-Apr-11 19:34N 50°42' W 000°58'1918.9
2014-Apr-11 18:33N 50°24' W 000°51'3919.3
2014-Apr-11 16:33N 49°48' W 000°30'1919.3
2014-Apr-11 15:33N 49°30' W 000°20'1312.5
2014-Apr-11 14:33N 49°17' W 000°15'0 0.0
2014-Apr-11 13:33N 49°17' W 000°15'0 0.0
2014-Apr-11 12:31N 49°17' W 000°15'0 0.0
2014-Apr-11 11:32N 49°17' W 000°15'0 0.0
2014-Apr-11 10:32N 49°17' W 000°15'0 0.0
2014-Apr-11 09:26N 49°17' W 000°15'0 0.0
2014-Apr-11 08:32N 49°17' W 000°15'0 0.0
2014-Apr-11 07:26N 49°17' W 000°15'0 0.0
2014-Apr-11 06:33N 49°17' W 000°15'0 0.0
2014-Apr-11 05:33N 49°17' W 000°15'1211.7
2014-Apr-11 04:33N 49°29' W 000°19'1313.2
2014-Apr-11 03:33N 49°41' W 000°27'1313.0
2014-Apr-11 02:31N 49°53' W 000°37'1212.6
2014-Apr-11 01:33N 50°04' W 000°44'1312.6
2014-Apr-11 00:33N 50°16' W 000°49'1312.9
2014-Apr-10 23:33N 50°29' W 000°54'1313.5
2014-Apr-10 22:34N 50°41' W 001°01'8 8.0
2014-Apr-10 21:34N 50°49' W 001°06'0 0.0
2014-Apr-10 20:34N 50°49' W 001°06'5 4.9
2014-Apr-10 19:34N 50°44' W 001°04'1918.8
2014-Apr-10 18:33N 50°27' W 000°50'2019.6
2014-Apr-10 17:34N 50°09' W 000°40'1919.2
2014-Apr-10 16:33N 49°51' W 000°30'1919.2
2014-Apr-10 15:34N 49°32' W 000°22'1615.5
2014-Apr-10 14:33N 49°17' W 000°15'0 0.1
2014-Apr-10 13:33N 49°17' W 000°15'3 2.8
2014-Apr-10 12:33N 49°20' W 000°14'1919.0
2014-Apr-10 11:33N 49°38' W 000°22'2019.4
2014-Apr-10 10:32N 49°57' W 000°31'1919.6
2014-Apr-10 09:33N 50°15' W 000°41'2019.9
2014-Apr-10 08:33N 50°33' W 000°55'1716.7
2014-Apr-10 07:33N 50°48' W 001°07'1 0.9
2014-Apr-10 06:34N 50°49' W 001°06'0 0.1
2014-Apr-10 05:34N 50°49' W 001°06'1313.3
2014-Apr-10 04:34N 50°37' W 000°57'1717.0
2014-Apr-10 03:33N 50°21' W 000°48'1616.1
2014-Apr-10 02:34N 50°05' W 000°41'1212.4
2014-Apr-10 01:33N 49°54' W 000°34'1312.6
2014-Apr-10 00:33N 49°42' W 000°26'1312.8
2014-Apr-09 23:33N 49°30' W 000°18'6 6.0
2014-Apr-09 22:33N 49°25' W 000°15'4 3.8
2014-Apr-09 21:34N 49°21' W 000°15'4 3.7
2014-Apr-09 20:33N 49°17' W 000°15'0 0.0
2014-Apr-09 19:33N 49°17' W 000°15'1212.2
2014-Apr-09 18:34N 49°29' W 000°19'2119.4
2014-Apr-09 17:29N 49°49' W 000°30'1919.9
2014-Apr-09 16:33N 50°06' W 000°39'2019.9
2014-Apr-09 15:34N 50°25' W 000°51'1919.0
2014-Apr-09 14:34N 50°42' W 001°02'7 6.8
2014-Apr-09 13:33N 50°49' W 001°06'0 0.0
2014-Apr-09 12:33N 50°49' W 001°06'5 5.1
2014-Apr-09 11:33N 50°44' W 001°03'1817.9
2014-Apr-09 10:33N 50°28' W 000°51'4018.6
2014-Apr-09 08:24N 49°50' W 000°29'1619.2
2014-Apr-09 07:33N 49°35' W 000°20'1818.0
2014-Apr-09 06:33N 49°17' W 000°15'0 0.1
2014-Apr-09 05:33N 49°17' W 000°15'0 0.1
2014-Apr-09 04:33N 49°17' W 000°15'1413.9
2014-Apr-09 03:33N 49°31' W 000°18'1616.0
2014-Apr-09 02:33N 49°46' W 000°29'2016.3
2014-Apr-09 01:18N 50°05' W 000°40'1216.0
2014-Apr-09 00:34N 50°16' W 000°47'1615.7
2014-Apr-08 23:33N 50°31' W 000°55'1414.4
2014-Apr-08 22:33N 50°44' W 001°03'5 5.1
2014-Apr-08 21:33N 50°49' W 001°06'0 0.0
2014-Apr-08 20:33N 50°49' W 001°06'5 4.6
2014-Apr-08 19:33N 50°44' W 001°04'2019.8
2014-Apr-08 18:33N 50°25' W 000°55'4120.0
2014-Apr-08 16:31N 49°48' W 000°29'1818.6
2014-Apr-08 15:33N 49°32' W 000°16'1514.8
2014-Apr-08 14:33N 49°17' W 000°15'0 0.0
2014-Apr-08 13:33N 49°17' W 000°15'2 1.7
2014-Apr-08 12:33N 49°19' W 000°15'2019.8
2014-Apr-08 11:34N 49°38' W 000°23'4120.3
2014-Apr-08 09:33N 50°16' W 000°46'2020.5
2014-Apr-08 08:33N 50°35' W 000°57'1514.8
2014-Apr-08 07:33N 50°49' W 001°06'0 0.1
2014-Apr-08 06:33N 50°49' W 001°06'0 0.1
2014-Apr-08 05:33N 50°49' W 001°06'1313.3
2014-Apr-08 04:33N 50°37' W 000°57'1515.0
2014-Apr-08 03:33N 50°22' W 000°50'4511.3
2014-Apr-07 23:33N 49°38' W 000°36'1010.5
2014-Apr-07 22:33N 49°29' W 000°28'1110.6
2014-Apr-07 21:33N 49°22' W 000°16'5 4.6
2014-Apr-07 20:33N 49°17' W 000°15'0 0.0
2014-Apr-07 19:33N 49°17' W 000°15'3015.1
2014-Apr-07 17:32N 49°46' W 000°30'2618.5
2014-Apr-07 16:07N 50°10' W 000°46'1018.1
2014-Apr-07 15:33N 50°20' W 000°48'  

Dump ship's entire track history

sailing weather and tide predictions

Mont Saint Michel — FNMT — position and weather